< < Back
Terminal Aerodrome Forecast


Current Version              Previous Versions:   1  2  3  4  5  6  7  8  9  

Terminal Aerodrome Forecast

364
FTUS42 KGSP 292058 AAA
TAFCLT
TAF AMD
KCLT 292058Z 2921/3018 02008KT P6SM FEW060 BKN250
     FM300000 06003KT P6SM BKN250
     FM301500 04007KT P6SM FEW050 BKN250=

Latest METAR

543
SAUS70 KWBC 292300 RRG
MTRCLT
METAR KCLT 292252Z 07007KT 10SM BKN180 BKN250 32/16 A3008 RMK AO2 SLP177
T03170161


USA.gov is the U.S. government's official web portal to all federal, state and local government web resources and services.